createdAt,value
2023-05-24T00:02:13.863Z,10.57
2023-05-24T00:04:41.661Z,9.07
2023-05-24T00:07:08.585Z,13.55
2023-05-24T00:09:35.502Z,10.32
2023-05-24T00:12:02.569Z,9.65
2023-05-24T00:14:29.356Z,8.77
2023-05-24T00:16:56.168Z,12.35
2023-05-24T00:19:23.104Z,9.45
2023-05-24T00:21:50.025Z,12.85
2023-05-24T00:24:19.625Z,7.68
2023-05-24T00:26:46.399Z,13.95
2023-05-24T00:29:13.186Z,6.78
2023-05-24T00:31:39.940Z,8.85
2023-05-24T00:34:06.999Z,18.08
2023-05-24T00:36:33.993Z,10.52
2023-05-24T00:39:00.825Z,11.20
2023-05-24T00:41:27.708Z,7.50
2023-05-24T00:43:54.540Z,13.45
2023-05-24T00:46:28.895Z,10.02
2023-05-24T00:48:56.893Z,7.32
2023-05-24T00:51:26.343Z,7.78
2023-05-24T00:53:53.667Z,10.70
2023-05-24T00:56:20.661Z,19.48
2023-05-24T00:58:48.423Z,13.40
2023-05-24T01:01:15.180Z,12.75
2023-05-24T01:03:42.181Z,16.33
2023-05-24T01:06:13.634Z,12.05
2023-05-24T01:08:40.540Z,8.60
2023-05-24T01:11:45.053Z,8.25
2023-05-24T01:14:43.840Z,13.80
2023-05-24T01:17:18.977Z,8.48
2023-05-24T01:20:06.889Z,12.48
2023-05-24T01:23:04.944Z,15.55
2023-05-24T01:26:00.759Z,12.10
2023-05-24T01:28:28.005Z,16.98
2023-05-24T01:30:55.910Z,17.55
2023-05-24T01:33:23.988Z,11.73
2023-05-24T01:35:50.750Z,13.82
2023-05-24T01:38:17.535Z,16.15
2023-05-24T01:40:47.055Z,16.35
2023-05-24T01:43:33.706Z,19.92
2023-05-24T01:46:32.406Z,12.15
2023-05-24T01:49:23.273Z,9.57
2023-05-24T01:52:00.269Z,17.10
2023-05-24T01:54:30.687Z,16.25
2023-05-24T01:56:58.756Z,12.68
2023-05-24T01:59:28.487Z,11.63
2023-05-24T02:01:55.474Z,11.45
2023-05-24T02:04:22.311Z,10.18
2023-05-24T02:06:49.095Z,12.57
2023-05-24T02:09:15.817Z,8.35
2023-05-24T02:11:42.588Z,13.05
2023-05-24T02:14:09.303Z,16.15
2023-05-24T02:16:42.455Z,7.90
2023-05-24T02:19:09.700Z,13.27
2023-05-24T02:21:36.449Z,12.18
2023-05-24T02:24:03.785Z,16.08
2023-05-24T02:26:30.662Z,19.95
2023-05-24T02:28:57.348Z,17.55
2023-05-24T02:31:25.800Z,9.55
2023-05-24T02:33:52.496Z,10.25
2023-05-24T02:36:19.222Z,16.73
2023-05-24T02:38:45.981Z,12.75
2023-05-24T02:41:17.820Z,11.38
2023-05-24T02:43:45.590Z,12.63
2023-05-24T02:46:12.840Z,19.20
2023-05-24T02:48:39.937Z,20.02
2023-05-24T02:51:07.035Z,16.60
2023-05-24T02:53:33.820Z,15.25
2023-05-24T02:56:00.548Z,21.27
2023-05-24T02:58:30.274Z,16.30
2023-05-24T03:00:57.469Z,15.00
2023-05-24T03:03:24.324Z,14.88
2023-05-24T03:05:51.497Z,18.65
2023-05-24T03:08:18.259Z,16.35
2023-05-24T03:10:44.999Z,15.90
2023-05-24T03:13:13.257Z,13.13
2023-05-24T03:15:40.010Z,16.95
2023-05-24T03:18:07.491Z,18.27
2023-05-24T03:20:35.485Z,15.18
2023-05-24T03:23:02.243Z,11.20
2023-05-24T03:25:29.520Z,22.67
2023-05-24T03:27:56.233Z,12.15
2023-05-24T03:30:23.130Z,19.92
2023-05-24T03:32:53.804Z,21.20
2023-05-24T03:35:20.720Z,15.55
2023-05-24T03:37:48.909Z,16.25
2023-05-24T03:40:16.477Z,12.63
2023-05-24T03:42:55.730Z,19.95
2023-05-24T03:45:39.136Z,17.10
2023-05-24T03:48:07.062Z,14.18
2023-05-24T03:50:34.381Z,15.55
2023-05-24T03:53:01.148Z,16.65
2023-05-24T03:55:27.870Z,14.57
2023-05-24T03:57:54.559Z,25.33
2023-05-24T04:00:21.655Z,14.68
2023-05-24T04:02:49.527Z,14.98
2023-05-24T04:05:16.365Z,17.15
2023-05-24T04:07:45.299Z,24.17
2023-05-24T04:10:12.689Z,15.45
2023-05-24T04:12:41.326Z,18.83
2023-05-24T04:15:08.770Z,13.30
2023-05-24T04:17:35.943Z,19.75
2023-05-24T04:20:03.631Z,20.52
2023-05-24T04:22:30.612Z,16.38
2023-05-24T04:24:58.027Z,30.92
2023-05-24T04:27:26.040Z,17.02
2023-05-24T04:29:54.328Z,18.33
2023-05-24T04:32:21.044Z,21.35
2023-05-24T04:34:47.810Z,14.82
2023-05-24T04:37:17.112Z,17.15
2023-05-24T04:39:46.017Z,11.00
2023-05-24T04:42:13.087Z,19.92
2023-05-24T04:44:42.971Z,17.13
2023-05-24T04:47:10.649Z,12.27
2023-05-24T04:49:37.761Z,27.33
2023-05-24T04:52:05.170Z,19.20
2023-05-24T04:54:32.736Z,18.95
2023-05-24T04:56:59.485Z,17.42
2023-05-24T04:59:26.187Z,14.07
2023-05-24T05:01:52.913Z,15.60
2023-05-24T05:04:19.620Z,14.50
2023-05-24T05:06:46.534Z,20.63
2023-05-24T05:09:14.715Z,15.98
2023-05-24T05:11:41.677Z,17.48
2023-05-24T05:14:11.610Z,12.50
2023-05-24T05:16:39.035Z,18.13
2023-05-24T05:19:05.887Z,12.80
2023-05-24T05:21:33.483Z,15.70
2023-05-24T05:24:01.200Z,11.73
2023-05-24T05:26:28.429Z,15.25
2023-05-24T05:28:55.827Z,21.10
2023-05-24T05:31:22.957Z,17.92
2023-05-24T05:33:49.723Z,13.13
2023-05-24T05:36:16.921Z,12.73
2023-05-24T05:38:43.637Z,17.92
2023-05-24T05:41:10.707Z,11.00
2023-05-24T05:43:39.173Z,16.58
2023-05-24T05:46:06.584Z,14.75
2023-05-24T05:48:33.374Z,11.32
2023-05-24T05:51:00.224Z,17.15
2023-05-24T05:53:26.977Z,14.93
2023-05-24T05:55:53.692Z,17.70
2023-05-24T05:58:20.482Z,15.65
2023-05-24T06:00:47.153Z,10.75
2023-05-24T06:03:14.032Z,11.48
2023-05-24T06:05:41.767Z,14.15
2023-05-24T06:08:08.474Z,10.75
2023-05-24T06:10:35.309Z,15.75
2023-05-24T06:13:03.330Z,13.95
2023-05-24T06:15:30.418Z,14.05
2023-05-24T06:17:57.324Z,14.65
2023-05-24T06:20:24.233Z,10.95
2023-05-24T06:22:51.038Z,17.20
2023-05-24T06:25:20.780Z,14.65
2023-05-24T06:27:47.584Z,16.27
2023-05-24T06:30:14.501Z,16.55
2023-05-24T06:32:41.635Z,15.27
2023-05-24T06:35:08.932Z,13.13
2023-05-24T06:37:38.476Z,15.38
2023-05-24T06:40:08.834Z,15.43
2023-05-24T06:42:36.837Z,13.50
2023-05-24T06:45:03.884Z,14.52
2023-05-24T06:47:30.836Z,9.45
2023-05-24T06:49:57.798Z,11.32
2023-05-24T06:52:24.618Z,12.93
2023-05-24T06:54:52.177Z,12.30
2023-05-24T06:57:18.903Z,10.27
2023-05-24T06:59:45.988Z,10.88
2023-05-24T07:02:12.777Z,14.07
2023-05-24T07:04:41.271Z,11.10
2023-05-24T07:07:08.969Z,14.30
2023-05-24T07:09:35.719Z,14.15
2023-05-24T07:12:02.641Z,10.00
2023-05-24T07:14:29.385Z,12.50
2023-05-24T07:16:57.488Z,12.35
2023-05-24T07:19:28.847Z,15.20
2023-05-24T07:21:58.744Z,14.40
2023-05-24T07:24:25.465Z,14.13
2023-05-24T07:26:53.652Z,10.93
2023-05-24T07:29:21.932Z,12.43
2023-05-24T07:31:48.847Z,9.88
2023-05-24T07:34:16.165Z,12.07
2023-05-24T07:36:42.876Z,11.38
2023-05-24T07:39:10.191Z,14.25
2023-05-24T07:41:37.161Z,12.45
2023-05-24T07:44:04.054Z,10.88
2023-05-24T07:46:30.795Z,14.18
2023-05-24T07:48:57.556Z,10.85
2023-05-24T07:51:24.257Z,14.05
2023-05-24T07:53:50.930Z,12.90
2023-05-24T07:56:17.651Z,9.73
2023-05-24T07:58:46.672Z,14.40
2023-05-24T08:01:14.129Z,15.55
2023-05-24T08:03:41.021Z,14.88
2023-05-24T08:06:08.068Z,15.23
2023-05-24T08:08:35.560Z,14.55
2023-05-24T08:11:02.299Z,19.40
2023-05-24T08:13:28.996Z,11.48
2023-05-24T08:15:55.867Z,11.98
2023-05-24T08:18:22.689Z,11.18
2023-05-24T08:20:49.531Z,13.63
2023-05-24T08:23:16.228Z,11.63
2023-05-24T08:25:43.077Z,13.43
2023-05-24T08:28:10.987Z,8.98
2023-05-24T08:30:38.280Z,6.78
2023-05-24T08:33:05.046Z,12.70
2023-05-24T08:35:31.750Z,10.77
2023-05-24T08:37:58.398Z,11.07
2023-05-24T08:40:25.375Z,10.02
2023-05-24T08:42:52.873Z,14.63
2023-05-24T08:45:22.147Z,12.18
2023-05-24T08:47:51.698Z,12.85
2023-05-24T08:50:19.273Z,12.90
2023-05-24T08:52:46.490Z,16.30
2023-05-24T08:55:14.462Z,12.10
2023-05-24T08:57:41.918Z,14.77
2023-05-24T09:00:13.754Z,13.50
2023-05-24T09:02:42.244Z,10.57
2023-05-24T09:05:16.306Z,12.10
2023-05-24T09:07:46.463Z,11.73
2023-05-24T09:10:13.374Z,11.45
2023-05-24T09:12:44.641Z,9.55
2023-05-24T09:15:11.999Z,14.45
2023-05-24T09:17:40.585Z,11.45
2023-05-24T09:20:09.097Z,12.48
2023-05-24T09:22:41.440Z,7.93
2023-05-24T09:25:10.884Z,15.85
2023-05-24T09:27:38.424Z,13.38
2023-05-24T09:30:10.083Z,11.15
2023-05-24T09:32:38.600Z,11.18
2023-05-24T09:35:09.381Z,7.65
2023-05-24T09:37:38.753Z,12.73
2023-05-24T09:40:07.236Z,9.57
2023-05-24T09:42:34.107Z,15.40
2023-05-24T09:45:09.411Z,10.23
2023-05-24T09:47:40.999Z,15.55
2023-05-24T09:50:19.735Z,13.88
2023-05-24T09:52:46.657Z,9.98
2023-05-24T09:55:18.127Z,13.60
2023-05-24T09:58:05.981Z,8.73
2023-05-24T10:00:41.242Z,13.32
2023-05-24T10:03:11.956Z,12.77
2023-05-24T10:05:45.121Z,10.27
2023-05-24T10:08:14.188Z,9.57
2023-05-24T10:10:42.998Z,12.98
2023-05-24T10:13:10.338Z,9.50
2023-05-24T10:15:37.121Z,10.40
2023-05-24T10:18:10.457Z,10.60
2023-05-24T10:20:38.211Z,10.38
2023-05-24T10:23:09.707Z,9.73
2023-05-24T10:25:41.041Z,12.68
2023-05-24T10:28:12.434Z,12.57
2023-05-24T10:31:01.849Z,11.07
2023-05-24T10:33:31.222Z,12.70
2023-05-24T10:35:58.649Z,14.98
2023-05-24T10:38:25.720Z,9.10
2023-05-24T10:40:52.829Z,11.65
2023-05-24T10:43:21.344Z,10.80
2023-05-24T10:45:51.690Z,12.70
2023-05-24T10:48:24.657Z,9.40
2023-05-24T10:50:51.877Z,7.45
2023-05-24T10:53:22.391Z,11.02
2023-05-24T10:55:55.740Z,8.73
2023-05-24T10:58:58.168Z,13.95
2023-05-24T11:01:32.162Z,8.55
2023-05-24T11:04:15.686Z,15.70
2023-05-24T11:06:49.551Z,9.55
2023-05-24T11:09:22.459Z,9.32
2023-05-24T11:11:54.552Z,13.80
2023-05-24T11:14:27.674Z,11.65
2023-05-24T11:16:55.100Z,13.82
2023-05-24T11:19:24.307Z,17.23
2023-05-24T11:21:53.406Z,8.43
2023-05-24T11:24:21.739Z,10.52
2023-05-24T11:26:50.292Z,8.90
2023-05-24T11:29:18.051Z,8.75
2023-05-24T11:31:57.686Z,11.25
2023-05-24T11:34:27.096Z,17.10
2023-05-24T11:36:55.187Z,11.23
2023-05-24T11:39:23.389Z,11.57
2023-05-24T11:41:51.275Z,8.95
2023-05-24T11:44:19.609Z,10.48
2023-05-24T11:46:46.820Z,12.93
2023-05-24T11:49:17.231Z,14.30
2023-05-24T11:51:44.393Z,11.23
2023-05-24T11:54:11.731Z,13.20
2023-05-24T11:56:38.634Z,14.35
2023-05-24T11:59:18.387Z,14.77
2023-05-24T12:01:45.113Z,14.13
2023-05-24T12:04:12.908Z,6.07
2023-05-24T12:06:42.015Z,13.43
2023-05-24T12:09:13.183Z,10.82
2023-05-24T12:11:42.134Z,13.38
2023-05-24T12:14:13.671Z,10.35
2023-05-24T12:16:42.659Z,13.32
2023-05-24T12:19:31.753Z,16.13
2023-05-24T12:22:01.020Z,14.90
2023-05-24T12:24:28.670Z,14.45
2023-05-24T12:27:03.621Z,11.45
2023-05-24T12:29:38.654Z,10.57
2023-05-24T12:32:06.461Z,10.55
2023-05-24T12:34:33.222Z,11.15
2023-05-24T12:37:00.454Z,9.63
2023-05-24T12:39:31.515Z,20.10
2023-05-24T12:41:59.588Z,8.43
2023-05-24T12:44:37.544Z,10.30
2023-05-24T12:47:06.702Z,8.65
2023-05-24T12:49:33.933Z,8.18
2023-05-24T12:52:03.892Z,8.23
2023-05-24T12:54:30.828Z,10.13
2023-05-24T12:57:00.205Z,17.30
2023-05-24T12:59:28.374Z,12.20
2023-05-24T13:01:55.511Z,8.68
2023-05-24T13:04:26.090Z,10.05
2023-05-24T13:06:52.860Z,9.18
2023-05-24T13:09:22.306Z,11.75
2023-05-24T13:11:49.488Z,9.48
2023-05-24T13:14:16.976Z,8.73
2023-05-24T13:16:44.206Z,6.25
2023-05-24T13:19:11.824Z,7.55
2023-05-24T13:21:39.096Z,11.52
2023-05-24T13:24:06.825Z,7.82
2023-05-24T13:26:37.446Z,6.90
2023-05-24T13:29:32.206Z,10.23
2023-05-24T13:31:55.440Z,10.55
2023-05-24T13:34:25.600Z,7.70
2023-05-24T13:36:54.162Z,7.18
2023-05-24T13:39:22.131Z,11.60
2023-05-24T13:41:49.017Z,9.02
2023-05-24T13:44:16.954Z,7.20
2023-05-24T13:46:44.058Z,8.48
2023-05-24T13:49:11.780Z,8.57
2023-05-24T13:51:39.416Z,6.85
2023-05-24T13:54:07.183Z,10.35
2023-05-24T13:56:34.480Z,11.35
2023-05-24T13:59:02.636Z,7.03
2023-05-24T14:01:30.244Z,8.38
2023-05-24T14:03:57.142Z,6.90
2023-05-24T14:06:24.117Z,8.60
2023-05-24T14:08:51.124Z,8.18
2023-05-24T14:11:17.838Z,10.35
2023-05-24T14:16:14.783Z,8.88
2023-05-24T14:18:41.885Z,5.40
2023-05-24T14:21:08.555Z,9.13
2023-05-24T14:23:35.355Z,4.53
2023-05-24T14:26:02.347Z,7.30
2023-05-24T14:28:29.093Z,7.18
2023-05-24T14:30:55.800Z,5.90
2023-05-24T14:33:23.339Z,8.55
2023-05-24T14:35:51.492Z,7.07
2023-05-24T14:38:18.302Z,8.35
2023-05-24T14:40:47.435Z,4.70
2023-05-24T14:43:14.602Z,6.07
2023-05-24T14:45:42.318Z,10.65
2023-05-24T14:48:13.236Z,5.97
2023-05-24T14:50:40.949Z,6.70
2023-05-24T14:53:14.142Z,7.30
2023-05-24T14:55:42.692Z,7.43
2023-05-24T14:58:11.776Z,5.43
2023-05-24T15:00:39.025Z,7.93
2023-05-24T15:03:07.893Z,7.30
2023-05-24T15:05:36.060Z,7.90
2023-05-24T15:08:02.849Z,9.35
2023-05-24T15:10:29.558Z,7.78
2023-05-24T15:12:56.254Z,10.65
2023-05-24T15:15:23.385Z,4.65
2023-05-24T15:17:50.173Z,10.20
2023-05-24T15:20:17.015Z,8.07
2023-05-24T15:22:43.919Z,7.18
2023-05-24T15:25:11.341Z,7.18
2023-05-24T15:27:38.600Z,7.18
2023-05-24T15:30:06.303Z,5.38
2023-05-24T15:32:33.001Z,5.10
2023-05-24T15:35:02.554Z,7.25
2023-05-24T15:37:29.319Z,4.78
2023-05-24T15:39:56.085Z,5.75
2023-05-24T15:42:24.600Z,4.68
2023-05-24T15:44:51.580Z,4.70
2023-05-24T15:47:21.257Z,9.10
2023-05-24T15:49:49.565Z,6.95
2023-05-24T15:52:16.376Z,9.63
2023-05-24T15:54:43.209Z,6.75
2023-05-24T15:57:09.951Z,4.05
2023-05-24T15:59:38.475Z,5.90
2023-05-24T16:02:06.484Z,12.07
2023-05-24T16:04:33.261Z,6.60
2023-05-24T16:07:00.347Z,5.78
2023-05-24T16:09:27.314Z,6.53
2023-05-24T16:11:54.137Z,5.85
2023-05-24T16:14:21.124Z,12.27
2023-05-24T16:16:47.908Z,8.13
2023-05-24T16:19:14.800Z,8.73
2023-05-24T16:21:41.885Z,6.63
2023-05-24T16:24:09.206Z,7.60
2023-05-24T16:26:36.167Z,7.25
2023-05-24T16:29:02.907Z,6.35
2023-05-24T16:31:31.104Z,6.25
2023-05-24T16:33:58.778Z,4.13
2023-05-24T16:36:26.864Z,8.43
2023-05-24T16:38:53.827Z,6.57
2023-05-24T16:41:20.535Z,10.82
2023-05-24T16:43:47.233Z,7.47
2023-05-24T16:46:14.009Z,8.25
2023-05-24T16:48:41.033Z,12.75
2023-05-24T16:51:07.856Z,5.78
2023-05-24T16:53:34.565Z,5.47
2023-05-24T16:56:01.316Z,5.05
2023-05-24T16:58:28.824Z,10.18
2023-05-24T17:00:55.749Z,7.43
2023-05-24T17:03:28.293Z,4.75
2023-05-24T17:05:56.780Z,14.85
2023-05-24T17:08:25.707Z,5.60
2023-05-24T17:10:56.053Z,5.97
2023-05-24T17:13:27.368Z,9.32
2023-05-24T17:15:55.284Z,10.10
2023-05-24T17:18:30.186Z,7.47
2023-05-24T17:20:57.985Z,8.30
2023-05-24T17:23:30.655Z,5.78
2023-05-24T17:25:57.950Z,5.70
2023-05-24T17:28:27.645Z,7.80
2023-05-24T17:30:59.611Z,3.90
2023-05-24T17:33:28.037Z,6.72
2023-05-24T17:35:56.543Z,8.27
2023-05-24T17:38:24.873Z,8.70
2023-05-24T17:40:59.497Z,8.52
2023-05-24T17:43:32.169Z,7.05
2023-05-24T17:46:06.053Z,9.23
2023-05-24T17:48:34.662Z,4.78
2023-05-24T17:51:03.736Z,7.07
2023-05-24T17:53:33.436Z,8.35
2023-05-24T17:56:00.814Z,5.32
2023-05-24T17:58:28.655Z,6.55
2023-05-24T18:00:55.449Z,7.88
2023-05-24T18:03:23.827Z,5.95
2023-05-24T18:05:50.617Z,7.65
2023-05-24T18:08:17.380Z,6.35
2023-05-24T18:10:44.012Z,8.23
2023-05-24T18:13:11.092Z,12.63
2023-05-24T18:15:37.863Z,8.63
2023-05-24T18:18:04.726Z,8.10
2023-05-24T18:20:31.650Z,4.75
2023-05-24T18:22:58.419Z,10.65
2023-05-24T18:25:25.674Z,6.78
2023-05-24T18:27:52.368Z,14.80
2023-05-24T18:30:19.263Z,11.40
2023-05-24T18:32:56.260Z,10.98
2023-05-24T18:35:32.172Z,12.32
2023-05-24T18:37:59.389Z,9.77
2023-05-24T18:40:26.416Z,6.95
2023-05-24T18:42:53.244Z,5.80
2023-05-24T18:45:19.964Z,5.75
2023-05-24T18:47:46.725Z,11.43
2023-05-24T18:50:13.563Z,6.55
2023-05-24T18:52:40.352Z,5.50
2023-05-24T18:55:10.603Z,6.30
2023-05-24T18:57:38.055Z,3.47
2023-05-24T19:00:07.065Z,4.85
2023-05-24T19:02:40.341Z,5.32
2023-05-24T19:05:08.139Z,5.45
2023-05-24T19:07:36.065Z,5.65
2023-05-24T19:10:03.911Z,5.75
2023-05-24T19:12:30.727Z,6.63
2023-05-24T19:14:57.475Z,3.67
2023-05-24T19:17:25.021Z,7.07
2023-05-24T19:19:52.096Z,4.65
2023-05-24T19:22:19.103Z,4.63
2023-05-24T19:24:46.004Z,6.68
2023-05-24T19:27:13.191Z,11.57
2023-05-24T19:29:40.125Z,6.72
2023-05-24T19:32:08.222Z,5.28
2023-05-24T19:34:37.033Z,6.45
2023-05-24T19:37:04.127Z,7.07
2023-05-24T19:39:30.970Z,5.07
2023-05-24T19:41:57.682Z,7.10
2023-05-24T19:44:24.430Z,6.47
2023-05-24T19:46:51.170Z,6.30
2023-05-24T19:49:17.912Z,4.70
2023-05-24T19:51:44.659Z,7.85
2023-05-24T19:54:12.593Z,5.90
2023-05-24T19:56:39.386Z,8.98
2023-05-24T19:59:06.073Z,6.50
2023-05-24T20:01:32.818Z,11.07
2023-05-24T20:03:59.621Z,5.00
2023-05-24T20:06:27.332Z,7.57
2023-05-24T20:08:55.622Z,7.03
2023-05-24T20:11:22.384Z,4.97
2023-05-24T20:13:49.247Z,7.88
2023-05-24T20:16:16.294Z,9.38
2023-05-24T20:18:43.085Z,8.75
2023-05-24T20:21:11.088Z,4.65
2023-05-24T20:23:37.832Z,4.43
2023-05-24T20:26:04.854Z,5.03
2023-05-24T20:28:32.093Z,5.05
2023-05-24T20:30:59.189Z,9.55
2023-05-24T20:33:25.978Z,5.75
2023-05-24T20:35:55.615Z,11.35
2023-05-24T20:38:23.506Z,6.38
2023-05-24T20:40:50.235Z,8.18
2023-05-24T20:43:16.953Z,9.95
2023-05-24T20:45:43.863Z,6.55
2023-05-24T20:48:10.934Z,6.43
2023-05-24T20:50:37.812Z,5.78
2023-05-24T20:53:04.520Z,8.90
2023-05-24T20:55:31.640Z,8.77
2023-05-24T20:57:58.397Z,7.28
2023-05-24T21:00:25.433Z,6.13
2023-05-24T21:02:52.134Z,6.65
2023-05-24T21:05:18.928Z,8.00
2023-05-24T21:07:45.946Z,6.38
2023-05-24T21:10:18.532Z,7.40
2023-05-24T21:12:47.869Z,8.35
2023-05-24T21:15:14.709Z,10.30
2023-05-24T21:17:41.456Z,8.25
2023-05-24T21:20:08.856Z,6.95
2023-05-24T21:22:35.765Z,5.75
2023-05-24T21:25:02.446Z,8.50
2023-05-24T21:27:29.207Z,7.95
2023-05-24T21:29:56.115Z,9.32
2023-05-24T21:32:22.918Z,6.22
2023-05-24T21:34:49.872Z,10.05
2023-05-24T21:37:17.428Z,6.93
2023-05-24T21:39:44.509Z,3.60
2023-05-24T21:42:11.318Z,9.25
2023-05-24T21:44:38.055Z,4.13
2023-05-24T21:47:05.259Z,5.78
2023-05-24T21:49:32.027Z,8.32
2023-05-24T21:51:58.846Z,5.38
2023-05-24T21:54:25.528Z,5.57
2023-05-24T21:56:52.273Z,6.47
2023-05-24T21:59:19.021Z,8.98
2023-05-24T22:01:45.883Z,3.63
2023-05-24T22:04:12.969Z,8.13
2023-05-24T22:06:41.563Z,12.95
2023-05-24T22:09:09.360Z,5.60
2023-05-24T22:11:36.160Z,6.03
2023-05-24T22:14:02.977Z,4.82
2023-05-24T22:16:29.724Z,5.45
2023-05-24T22:18:56.502Z,5.70
2023-05-24T22:21:23.247Z,6.78
2023-05-24T22:23:51.796Z,7.22
2023-05-24T22:26:18.530Z,14.88
2023-05-24T22:28:53.373Z,6.60
2023-05-24T22:31:20.217Z,3.75
2023-05-24T22:33:48.910Z,8.80
2023-05-24T22:36:16.055Z,8.77
2023-05-24T22:38:43.879Z,6.80
2023-05-24T22:41:10.599Z,9.43
2023-05-24T22:43:37.353Z,7.75
2023-05-24T22:46:05.035Z,6.90
2023-05-24T22:48:33.786Z,9.20
2023-05-24T22:51:00.671Z,10.20
2023-05-24T22:53:27.438Z,7.88
2023-05-24T22:55:54.152Z,8.90
2023-05-24T22:58:24.370Z,12.13
2023-05-24T23:00:51.789Z,7.07
2023-05-24T23:03:18.688Z,6.63
2023-05-24T23:05:45.692Z,5.28
2023-05-24T23:08:15.337Z,10.23
2023-05-24T23:10:45.471Z,13.13
2023-05-24T23:13:18.715Z,6.60
2023-05-24T23:15:46.914Z,11.82
2023-05-24T23:18:16.207Z,8.43
2023-05-24T23:20:44.279Z,7.50
2023-05-24T23:23:11.189Z,9.63
2023-05-24T23:25:37.961Z,4.45
2023-05-24T23:28:05.081Z,5.57
2023-05-24T23:30:31.992Z,9.05
2023-05-24T23:32:59.483Z,13.40
2023-05-24T23:35:26.497Z,7.60
2023-05-24T23:37:53.733Z,5.25
2023-05-24T23:40:20.781Z,8.90
2023-05-24T23:42:49.071Z,7.38
2023-05-24T23:45:16.075Z,6.95
2023-05-24T23:47:42.835Z,9.10
2023-05-24T23:50:10.338Z,8.48
2023-05-24T23:52:37.211Z,6.70
2023-05-24T23:55:04.354Z,7.60
2023-05-24T23:57:31.103Z,8.93
2023-05-24T23:59:57.980Z,7.55
